Time;durP1;ratioP1;P1;durP2;ratioP2;P2;SDS_P1;SDS_P2;PMS_P1;PMS_P2;Temp;Humidity;BMP_temperature;BMP_pressure;BME280_temperature;BME280_humidity;BME280_pressure;Samples;Min_cycle;Max_cycle;Signal;HPM_P1;HPM_P2
2022/07/31 00:01:16;;;;;;;72.40;25.50;;;16.60;99.90;;;;;;10563286;28;20663;-80
2022/07/31 00:06:18;;;;;;;64.70;23.42;;;16.70;99.90;;;;;;10570780;28;20044;-83
2022/07/31 00:11:18;;;;;;;41.90;18.92;;;16.70;99.90;;;;;;10568342;28;20031;-80
2022/07/31 00:16:19;;;;;;;49.75;20.33;;;16.70;99.90;;;;;;10569142;28;20039;-80
2022/07/31 00:21:20;;;;;;;41.10;18.27;;;16.70;99.90;;;;;;10566574;28;20028;-83
2022/07/31 00:26:20;;;;;;;44.78;18.85;;;16.70;99.90;;;;;;10569283;28;20024;-82
2022/07/31 00:31:21;;;;;;;39.58;17.63;;;16.70;99.90;;;;;;10564084;28;20031;-82
2022/07/31 00:36:21;;;;;;;38.90;17.60;;;16.70;99.90;;;;;;10568515;28;20097;-81
2022/07/31 00:41:22;;;;;;;30.88;14.75;;;16.70;99.90;;;;;;10569506;28;20537;-81
2022/07/31 00:46:22;;;;;;;37.78;16.30;;;16.70;99.90;;;;;;10564850;28;20035;-80
2022/07/31 00:51:23;;;;;;;32.13;15.95;;;16.70;99.90;;;;;;10564995;28;20028;-81
2022/07/31 00:56:24;;;;;;;41.13;17.42;;;16.70;99.90;;;;;;10567940;28;20405;-80
2022/07/31 01:01:25;;;;;;;40.45;15.55;;;16.80;99.90;;;;;;10567738;28;20047;-81
2022/07/31 01:06:25;;;;;;;19.20;11.13;;;16.80;99.90;;;;;;10569623;28;20046;-81
2022/07/31 01:11:37;;;;;;;19.33;10.63;;;16.90;99.90;;;;;;10568842;28;20027;-82
2022/07/31 01:16:41;;;;;;;10.02;8.10;;;16.90;99.90;;;;;;10565091;28;20471;-81
2022/07/31 01:22:07;;;;;;;6.60;5.97;;;16.90;99.90;;;;;;10564255;28;20043;-81
2022/07/31 01:27:24;;;;;;;;;;;16.90;99.90;;;;;;10567298;28;20149;-81
2022/07/31 01:32:31;;;;;;;2.92;2.58;;;16.80;99.90;;;;;;10568968;28;20286;-83
2022/07/31 01:37:38;;;;;;;6.65;2.50;;;16.70;99.90;;;;;;10575081;28;20050;-81
2022/07/31 01:42:43;;;;;;;2.22;1.88;;;16.50;99.90;;;;;;10574810;28;20534;-81
2022/07/31 01:47:45;;;;;;;2.15;1.73;;;16.40;99.90;;;;;;10572555;28;20533;-80
2022/07/31 01:52:47;;;;;;;2.95;1.90;;;16.20;99.90;;;;;;10572717;28;20028;-80
2022/07/31 01:57:49;;;;;;;2.75;2.30;;;16.10;99.90;;;;;;10576212;28;20040;-80
2022/07/31 02:02:51;;;;;;;2.47;2.28;;;15.90;99.90;;;;;;10574671;28;20048;-81
2022/07/31 02:07:52;;;;;;;5.63;2.38;;;15.80;99.90;;;;;;10572978;28;20049;-82
2022/07/31 02:12:53;;;;;;;2.38;2.17;;;15.80;99.90;;;;;;10573932;28;20101;-80
2022/07/31 02:17:54;;;;;;;4.38;2.30;;;15.70;99.90;;;;;;10573756;28;20414;-79
2022/07/31 02:22:56;;;;;;;4.10;2.75;;;15.60;99.90;;;;;;10572241;28;20050;-80
2022/07/31 02:27:59;;;;;;;2.55;2.30;;;15.60;99.90;;;;;;10574996;28;20035;-79
2022/07/31 02:33:00;;;;;;;3.25;2.10;;;15.50;99.90;;;;;;10570485;28;20073;-79
2022/07/31 02:38:02;;;;;;;5.00;2.40;;;15.50;99.90;;;;;;10572590;28;20044;-81
2022/07/31 02:43:03;;;;;;;2.38;2.15;;;15.50;99.90;;;;;;10573471;27;20134;-80
2022/07/31 02:48:05;;;;;;;2.50;2.30;;;15.50;99.90;;;;;;10573273;28;20027;-80
2022/07/31 02:53:06;;;;;;;3.85;2.00;;;15.50;99.90;;;;;;10571971;28;20023;-79
2022/07/31 02:58:07;;;;;;;2.03;1.83;;;15.50;99.90;;;;;;10571028;28;20407;-81
2022/07/31 03:03:08;;;;;;;3.15;2.08;;;15.40;99.90;;;;;;10572223;28;20036;-80
2022/07/31 03:08:08;;;;;;;3.97;2.20;;;15.40;99.90;;;;;;10568292;28;20028;-80
2022/07/31 03:13:10;;;;;;;2.03;1.83;;;15.50;99.90;;;;;;10570839;28;20035;-79
2022/07/31 03:18:13;;;;;;;3.03;2.00;;;15.50;99.90;;;;;;10572630;28;20075;-80
2022/07/31 03:23:14;;;;;;;2.35;1.60;;;15.50;99.90;;;;;;10564064;28;20051;-80
2022/07/31 03:28:18;;;;;;;1.70;1.58;;;15.40;99.90;;;;;;10572642;28;20055;-80
2022/07/31 03:33:18;;;;;;;2.38;2.08;;;15.40;99.90;;;;;;10571514;28;20534;-80
2022/07/31 03:38:19;;;;;;;1.73;1.63;;;15.40;99.90;;;;;;10565156;28;20040;-80
2022/07/31 03:43:21;;;;;;;1.50;1.40;;;15.40;99.90;;;;;;10565540;28;20039;-80
2022/07/31 03:48:21;;;;;;;1.88;1.75;;;15.40;99.90;;;;;;10570964;27;20028;-80
2022/07/31 03:53:23;;;;;;;2.70;1.98;;;15.30;99.90;;;;;;10572235;28;20028;-82
2022/07/31 03:58:24;;;;;;;3.17;1.92;;;15.30;99.90;;;;;;10566543;28;20055;-80
2022/07/31 04:03:29;;;;;;;2.10;1.92;;;15.20;99.90;;;;;;10570869;28;20032;-80
2022/07/31 04:08:30;;;;;;;2.15;1.75;;;15.20;99.90;;;;;;10566610;28;20474;-80
2022/07/31 04:13:30;;;;;;;2.40;1.60;;;15.10;99.90;;;;;;10570389;28;20053;-80
2022/07/31 04:18:31;;;;;;;3.78;1.85;;;15.10;99.90;;;;;;10566952;28;20130;-78
2022/07/31 04:23:31;;;;;;;2.47;1.80;;;15.10;99.90;;;;;;10571058;28;20546;-81
2022/07/31 04:28:32;;;;;;;2.13;1.95;;;15.00;99.90;;;;;;10564546;28;20047;-81
2022/07/31 04:33:33;;;;;;;1.80;1.70;;;15.00;99.90;;;;;;10569548;27;20180;-79
2022/07/31 04:38:33;;;;;;;2.30;2.10;;;15.00;99.90;;;;;;10555059;28;20033;-80
2022/07/31 04:43:34;;;;;;;1.77;1.65;;;15.00;99.90;;;;;;10563009;28;20028;-81
2022/07/31 04:48:34;;;;;;;2.75;2.20;;;15.00;99.90;;;;;;10565390;28;20016;-80
2022/07/31 04:53:35;;;;;;;2.22;1.95;;;15.00;99.90;;;;;;10569820;28;20073;-79
2022/07/31 04:58:35;;;;;;;2.50;2.30;;;15.00;99.90;;;;;;10568133;28;20050;-81
2022/07/31 05:03:36;;;;;;;1.70;1.58;;;15.10;99.90;;;;;;10570308;28;20069;-79
2022/07/31 05:08:37;;;;;;;3.38;2.45;;;15.10;99.90;;;;;;10574598;28;20110;-81
2022/07/31 05:13:38;;;;;;;2.75;2.45;;;15.10;99.90;;;;;;10578538;28;20024;-80
2022/07/31 05:18:38;;;;;;;5.20;3.83;;;15.10;99.90;;;;;;10578954;28;20032;-79
2022/07/31 05:23:40;;;;;;;5.18;4.05;;;15.00;99.90;;;;;;10577774;28;20020;-80
2022/07/31 05:28:41;;;;;;;5.95;4.82;;;15.00;99.90;;;;;;10577437;28;20445;-80
2022/07/31 05:33:42;;;;;;;7.03;5.15;;;14.90;99.90;;;;;;10577307;28;20026;-81
2022/07/31 05:38:42;;;;;;;8.25;5.15;;;14.90;99.90;;;;;;10562328;28;20619;-78
2022/07/31 05:43:43;;;;;;;7.68;5.55;;;14.80;99.90;;;;;;10576952;28;20033;-79
2022/07/31 05:48:43;;;;;;;5.55;4.90;;;14.70;99.90;;;;;;10571958;28;20027;-78
2022/07/31 05:53:44;;;;;;;8.82;5.95;;;14.60;99.90;;;;;;10575720;28;20459;-79
2022/07/31 05:58:45;;;;;;;6.72;5.90;;;14.60;99.90;;;;;;10574981;28;20819;-78
2022/07/31 06:03:45;;;;;;;7.78;6.57;;;14.60;99.90;;;;;;10576299;28;20483;-78
2022/07/31 06:08:46;;;;;;;7.22;5.15;;;14.60;99.90;;;;;;10575614;28;20541;-79
2022/07/31 06:13:47;;;;;;;6.82;5.07;;;14.60;99.90;;;;;;10575809;28;20110;-79
2022/07/31 06:18:47;;;;;;;6.30;5.65;;;14.60;99.90;;;;;;10570051;28;20046;-80
2022/07/31 06:23:48;;;;;;;4.40;3.85;;;14.70;99.90;;;;;;10567448;28;20036;-78
2022/07/31 06:28:49;;;;;;;5.10;4.60;;;14.70;99.90;;;;;;10573272;28;20085;-80
2022/07/31 06:33:49;;;;;;;3.88;3.47;;;14.70;99.90;;;;;;10566652;28;20050;-79
2022/07/31 06:38:50;;;;;;;6.90;4.70;;;14.70;99.90;;;;;;10571667;28;20364;-79
2022/07/31 06:43:52;;;;;;;6.32;4.20;;;14.70;99.90;;;;;;10565255;28;20077;-80
2022/07/31 06:48:53;;;;;;;13.85;6.47;;;14.70;99.90;;;;;;10573102;28;20047;-79
2022/07/31 06:53:54;;;;;;;9.00;5.03;;;14.70;99.90;;;;;;10568792;28;20368;-80
2022/07/31 06:58:57;;;;;;;7.50;5.03;;;14.70;99.90;;;;;;10570134;28;20055;-80
2022/07/31 07:03:58;;;;;;;5.50;4.00;;;14.70;99.90;;;;;;10501153;22;20068;-81
2022/07/31 07:09:00;;;;;;;8.05;6.38;;;14.70;99.90;;;;;;10470816;28;20093;-81
2022/07/31 07:14:02;;;;;;;10.63;6.68;;;14.70;99.90;;;;;;10471818;28;20080;-80
2022/07/31 07:19:02;;;;;;;10.27;5.97;;;14.70;99.90;;;;;;10465125;28;20049;-82
2022/07/31 07:24:04;;;;;;;13.70;7.22;;;14.70;99.90;;;;;;10459637;28;20037;-80
2022/07/31 07:29:04;;;;;;;16.00;9.18;;;14.60;99.90;;;;;;10452889;28;20059;-80
2022/07/31 07:34:07;;;;;;;10.48;7.93;;;14.60;99.90;;;;;;10453512;28;20120;-81
2022/07/31 07:39:09;;;;;;;10.10;7.85;;;14.70;99.90;;;;;;10454219;28;20037;-79
2022/07/31 07:44:10;;;;;;;10.13;7.32;;;14.70;99.90;;;;;;10466457;28;20107;-79
2022/07/31 07:49:11;;;;;;;9.77;5.90;;;14.70;99.90;;;;;;10465573;28;20036;-79
2022/07/31 07:54:14;;;;;;;11.38;8.88;;;14.70;99.90;;;;;;10455318;28;20036;-79
2022/07/31 07:59:14;;;;;;;10.48;8.82;;;14.60;99.90;;;;;;10470726;28;20441;-79
2022/07/31 08:04:15;;;;;;;12.48;8.95;;;14.60;99.90;;;;;;10465870;28;20045;-78
2022/07/31 08:09:16;;;;;;;11.10;9.10;;;14.70;99.90;;;;;;10455970;28;20115;-81
2022/07/31 08:14:16;;;;;;;7.72;6.93;;;14.70;99.90;;;;;;10463320;28;20037;-81
2022/07/31 08:19:17;;;;;;;9.70;7.38;;;14.70;99.90;;;;;;10455680;28;20519;-80
2022/07/31 08:24:18;;;;;;;10.98;7.30;;;14.70;99.90;;;;;;10459347;28;20048;-79
2022/07/31 08:29:20;;;;;;;8.48;7.28;;;14.70;99.90;;;;;;10468681;28;20388;-81
2022/07/31 08:34:22;;;;;;;9.00;7.07;;;14.70;99.90;;;;;;10459613;28;20052;-81
2022/07/31 08:39:23;;;;;;;7.53;6.38;;;14.70;99.90;;;;;;10449226;28;20131;-80
2022/07/31 08:44:24;;;;;;;9.00;6.82;;;14.70;99.90;;;;;;10455693;28;20037;-80
2022/07/31 08:49:26;;;;;;;10.85;7.93;;;14.70;99.90;;;;;;10457074;28;20029;-81
2022/07/31 08:54:29;;;;;;;10.52;8.63;;;14.60;99.90;;;;;;10458794;28;20024;-80
2022/07/31 08:59:31;;;;;;;9.98;7.28;;;14.60;99.90;;;;;;10471050;28;20119;-80
2022/07/31 09:04:32;;;;;;;14.50;11.40;;;14.70;99.90;;;;;;10453320;28;20049;-79
2022/07/31 09:09:32;;;;;;;11.48;8.95;;;14.80;99.90;;;;;;10458392;28;20037;-81
2022/07/31 09:14:33;;;;;;;7.15;6.15;;;14.90;99.90;;;;;;10451902;28;20033;-80
2022/07/31 09:19:39;;;;;;;7.85;6.30;;;14.90;99.90;;;;;;10454176;28;20132;-80
2022/07/31 09:24:40;;;;;;;5.47;4.72;;;14.90;99.90;;;;;;10455031;28;20033;-81
2022/07/31 09:29:43;;;;;;;5.60;4.88;;;14.90;99.90;;;;;;10461799;28;20589;-81
2022/07/31 09:34:44;;;;;;;7.85;6.05;;;15.00;99.90;;;;;;10462437;28;20168;-82
2022/07/31 09:39:50;;;;;;;10.55;7.15;;;15.10;99.90;;;;;;10459148;28;20098;-82
2022/07/31 09:44:51;;;;;;;8.32;5.43;;;15.00;99.90;;;;;;10473423;28;20499;-82
2022/07/31 09:49:57;;;;;;;6.03;4.57;;;15.10;99.90;;;;;;10450093;28;20025;-81
2022/07/31 09:55:10;;;;;;;7.63;5.70;;;15.00;99.90;;;;;;10449721;28;20040;-81
2022/07/31 10:00:11;;;;;;;5.53;4.30;;;15.00;99.90;;;;;;10456806;28;20048;-82
2022/07/31 10:05:12;;;;;;;6.40;5.03;;;14.80;99.90;;;;;;10460091;28;20142;-81
2022/07/31 10:10:14;;;;;;;8.10;5.28;;;14.80;99.90;;;;;;10461863;28;20025;-80
2022/07/31 10:15:17;;;;;;;10.70;7.10;;;14.80;99.90;;;;;;10457495;28;20032;-81
2022/07/31 10:20:21;;;;;;;10.65;8.15;;;14.80;99.90;;;;;;10472418;28;20431;-80
2022/07/31 10:25:28;;;;;;;11.95;8.10;;;14.80;99.90;;;;;;10469663;28;20086;-82
2022/07/31 10:30:29;;;;;;;11.50;8.50;;;14.90;99.90;;;;;;10454315;28;20475;-85
2022/07/31 10:35:30;;;;;;;17.55;12.18;;;14.90;99.90;;;;;;10463332;28;20552;-85
2022/07/31 10:41:02;;;;;;;11.18;9.10;;;14.90;99.90;;;;;;10456122;28;20140;-87
2022/07/31 10:46:03;;;;;;;13.60;9.50;;;14.90;99.90;;;;;;10460163;28;20041;-83
2022/07/31 10:51:08;;;;;;;15.88;10.40;;;14.90;99.90;;;;;;10463986;28;20040;-81
2022/07/31 10:56:11;;;;;;;15.18;10.20;;;14.70;99.90;;;;;;10478418;28;20044;-82
2022/07/31 11:01:12;;;;;;;17.58;11.80;;;14.80;99.90;;;;;;10453776;28;20029;-86
2022/07/31 11:06:17;;;;;;;11.55;9.27;;;14.80;99.90;;;;;;10454520;28;20041;-83
2022/07/31 11:11:31;;;;;;;14.32;11.00;;;14.90;99.90;;;;;;10453403;28;20431;-83
2022/07/31 11:16:32;;;;;;;17.65;12.40;;;14.90;99.90;;;;;;10455331;28;20029;-85
2022/07/31 11:21:40;;;;;;;13.27;10.10;;;15.00;99.90;;;;;;10468419;28;20032;-84
2022/07/31 11:26:52;;;;;;;17.00;12.63;;;15.10;99.90;;;;;;10459398;28;20021;-81
2022/07/31 11:31:53;;;;;;;15.43;12.40;;;15.20;99.90;;;;;;10455567;28;20033;-81
2022/07/31 11:36:54;;;;;;;17.27;12.50;;;15.20;99.90;;;;;;10455001;28;20090;-81
2022/07/31 11:41:55;;;;;;;18.13;13.63;;;15.30;99.90;;;;;;10474619;28;20126;-81
2022/07/31 11:46:56;;;;;;;17.75;13.68;;;15.30;99.90;;;;;;10468809;28;20087;-84
2022/07/31 11:52:01;;;;;;;18.40;14.27;;;15.30;99.90;;;;;;10462993;28;20089;-82
2022/07/31 11:57:04;;;;;;;22.63;16.70;;;15.30;99.90;;;;;;10455848;28;20596;-82
2022/07/31 12:02:11;;;;;;;25.30;17.42;;;15.30;99.90;;;;;;10460972;28;20045;-81
2022/07/31 12:07:11;;;;;;;20.98;14.57;;;15.30;99.90;;;;;;10449381;28;20044;-81
2022/07/31 12:12:12;;;;;;;21.15;15.98;;;15.20;99.90;;;;;;10454211;28;20038;-82
2022/07/31 12:17:21;;;;;;;22.70;17.45;;;15.20;99.90;;;;;;10467459;28;20048;-82
2022/07/31 12:22:21;;;;;;;29.00;19.60;;;15.30;99.90;;;;;;10464969;28;20033;-81
2022/07/31 12:27:22;;;;;;;26.10;17.83;;;15.30;99.90;;;;;;10457584;28;20036;-81
2022/07/31 12:32:24;;;;;;;26.20;19.17;;;15.30;99.90;;;;;;10466866;28;20036;-81
2022/07/31 12:37:26;;;;;;;23.38;18.95;;;15.40;99.90;;;;;;10469618;28;20540;-81
2022/07/31 12:42:31;;;;;;;26.15;20.05;;;15.40;99.90;;;;;;10447923;28;20078;-83
2022/07/31 12:47:33;;;;;;;;;;;15.50;99.90;;;;;;10448179;28;20071;-82
2022/07/31 12:52:36;;;;;;;20.27;15.52;;;15.50;99.90;;;;;;10452252;28;19951;-81
2022/07/31 12:57:56;;;;;;;21.73;16.05;;;15.60;99.90;;;;;;10452396;28;20695;-82
2022/07/31 13:02:57;;;;;;;23.42;15.70;;;15.60;99.90;;;;;;10448163;28;20056;-81
2022/07/31 13:07:57;;;;;;;23.23;15.38;;;15.60;99.90;;;;;;10455177;28;20037;-86
2022/07/31 13:12:59;;;;;;;32.55;22.20;;;15.60;99.90;;;;;;10448033;28;20116;-80
2022/07/31 13:18:09;;;;;;;29.17;21.02;;;15.60;99.90;;;;;;10447980;28;20491;-81
2022/07/31 13:23:10;;;;;;;30.60;22.20;;;15.60;99.90;;;;;;10462817;28;20033;-81
2022/07/31 13:28:11;;;;;;;23.88;16.77;;;15.70;99.90;;;;;;10457632;28;20415;-83
2022/07/31 13:33:11;;;;;;;23.00;18.02;;;15.70;99.90;;;;;;10455339;28;20517;-82
2022/07/31 13:38:13;;;;;;;18.92;13.88;;;15.80;99.90;;;;;;10456921;28;20853;-82
2022/07/31 13:43:14;;;;;;;17.80;14.82;;;15.80;99.90;;;;;;10457791;28;20031;-81
2022/07/31 13:48:15;;;;;;;19.20;14.18;;;15.90;99.90;;;;;;10460691;28;20032;-83
2022/07/31 13:53:15;;;;;;;15.40;13.00;;;15.90;99.90;;;;;;10453260;28;20384;-82
2022/07/31 13:58:16;;;;;;;17.70;12.82;;;16.00;99.90;;;;;;10453113;28;20502;-81
2022/07/31 14:03:17;;;;;;;16.73;13.80;;;16.00;99.90;;;;;;10462330;28;20639;-83
2022/07/31 14:08:19;;;;;;;21.17;15.23;;;16.00;99.90;;;;;;10475152;28;20047;-81
2022/07/31 14:13:20;;;;;;;21.45;15.23;;;16.00;99.90;;;;;;10467790;28;20120;-82
2022/07/31 14:18:22;;;;;;;22.58;16.67;;;16.00;99.90;;;;;;10454615;28;20498;-81
2022/07/31 14:23:23;;;;;;;20.23;14.75;;;16.10;99.90;;;;;;10461635;28;20524;-82
2022/07/31 14:28:24;;;;;;;19.90;14.18;;;16.00;99.90;;;;;;10457537;28;20163;-82
2022/07/31 14:33:25;;;;;;;23.95;17.15;;;16.00;99.90;;;;;;10468942;28;20032;-82
2022/07/31 14:38:26;;;;;;;16.02;12.95;;;16.00;99.90;;;;;;10454797;28;20040;-81
2022/07/31 14:43:27;;;;;;;16.10;13.40;;;16.00;99.90;;;;;;10471399;28;20551;-82
2022/07/31 14:48:28;;;;;;;20.58;16.05;;;16.00;99.90;;;;;;10463098;28;20517;-81
2022/07/31 14:53:28;;;;;;;17.15;13.15;;;16.00;99.90;;;;;;10452046;28;20054;-81
2022/07/31 14:58:29;;;;;;;15.07;12.43;;;16.00;99.90;;;;;;10458277;28;20086;-82
2022/07/31 15:03:30;;;;;;;16.10;12.48;;;16.00;99.90;;;;;;10470118;28;20045;-81
2022/07/31 15:08:30;;;;;;;15.07;11.43;;;16.10;99.90;;;;;;10470759;28;20030;-82
2022/07/31 15:13:31;;;;;;;17.67;12.05;;;16.00;99.90;;;;;;10471430;28;20032;-81
2022/07/31 15:18:32;;;;;;;17.08;9.88;;;16.00;99.90;;;;;;10470697;28;20048;-81
2022/07/31 15:23:33;;;;;;;14.35;9.52;;;16.00;99.90;;;;;;10467228;28;20037;-81
2022/07/31 15:28:34;;;;;;;17.02;12.40;;;16.00;99.90;;;;;;10471508;28;20078;-82
2022/07/31 15:33:35;;;;;;;14.48;8.95;;;15.90;99.90;;;;;;10474769;28;20040;-81
2022/07/31 15:38:38;;;;;;;17.67;11.27;;;16.00;99.90;;;;;;10460908;28;20898;-81
2022/07/31 15:43:38;;;;;;;16.50;10.73;;;16.00;99.90;;;;;;10468740;28;20029;-82
2022/07/31 15:48:39;;;;;;;21.13;13.00;;;15.90;99.90;;;;;;10461297;28;20033;-83
2022/07/31 15:53:39;;;;;;;19.15;13.52;;;15.90;99.90;;;;;;10456690;28;20043;-81
2022/07/31 15:58:40;;;;;;;28.38;18.05;;;15.90;99.90;;;;;;10454813;28;20123;-81
2022/07/31 16:03:40;;;;;;;27.88;17.73;;;15.90;99.90;;;;;;10464540;28;20447;-82
2022/07/31 16:08:41;;;;;;;28.83;18.52;;;16.00;99.90;;;;;;10459677;28;20094;-82
2022/07/31 16:13:42;;;;;;;31.05;19.23;;;16.10;99.90;;;;;;10454703;28;20024;-82
2022/07/31 16:18:42;;;;;;;26.98;18.35;;;16.20;99.90;;;;;;10449840;28;20078;-81
2022/07/31 16:23:44;;;;;;;22.67;15.98;;;16.30;99.90;;;;;;10465164;28;20036;-81
2022/07/31 16:28:47;;;;;;;16.00;12.27;;;16.40;99.90;;;;;;10468582;28;20033;-82
2022/07/31 16:33:48;;;;;;;21.50;15.60;;;16.50;99.90;;;;;;10455819;28;20082;-82
2022/07/31 16:38:48;;;;;;;19.55;12.95;;;16.60;99.90;;;;;;10462057;28;20539;-82
2022/07/31 16:43:49;;;;;;;14.02;10.60;;;16.70;99.90;;;;;;10453095;28;20032;-83
2022/07/31 16:48:49;;;;;;;12.38;10.40;;;16.70;99.90;;;;;;10453566;28;20043;-81
2022/07/31 16:53:50;;;;;;;13.55;9.68;;;16.80;99.90;;;;;;10466009;28;20460;-81
2022/07/31 16:58:53;;;;;;;10.18;7.88;;;16.80;99.90;;;;;;10464607;28;20036;-80
2022/07/31 17:03:54;;;;;;;17.80;8.23;;;16.80;99.90;;;;;;10457437;28;20043;-82
2022/07/31 17:08:55;;;;;;;15.15;9.60;;;16.80;99.90;;;;;;10468254;28;20037;-84
2022/07/31 17:13:55;;;;;;;15.93;10.15;;;16.80;99.90;;;;;;10467649;28;20035;-80
2022/07/31 17:18:57;;;;;;;11.60;8.65;;;16.80;99.90;;;;;;10468226;28;20068;-82
2022/07/31 17:23:57;;;;;;;13.32;7.65;;;16.80;99.90;;;;;;10461296;28;20051;-81
2022/07/31 17:29:22;;;;;;;11.18;8.18;;;16.80;99.90;;;;;;10468189;28;20040;-83
2022/07/31 17:35:02;;;;;;;12.57;8.85;;;16.80;99.90;;;;;;10479030;28;20028;-83
2022/07/31 17:40:04;;;;;;;10.93;8.10;;;16.80;99.90;;;;;;10462591;28;20077;-83
2022/07/31 17:51:09;;;;;;;11.15;6.70;;;16.70;99.90;;;;;;10453021;28;20579;-81
2022/07/31 17:56:09;;;;;;;10.70;7.47;;;16.70;99.90;;;;;;10463807;28;20025;-82
2022/07/31 18:01:10;;;;;;;9.68;6.80;;;16.70;99.90;;;;;;10471007;28;20036;-82
2022/07/31 18:06:10;;;;;;;11.18;6.40;;;16.70;99.90;;;;;;10471651;28;20024;-83
2022/07/31 18:11:11;;;;;;;12.55;6.88;;;16.70;99.90;;;;;;10465269;28;20371;-83
2022/07/31 18:16:11;;;;;;;8.98;6.40;;;16.70;99.90;;;;;;10465481;28;20649;-82
2022/07/31 18:21:13;;;;;;;9.23;7.20;;;16.70;99.90;;;;;;10454490;28;20052;-83
2022/07/31 18:26:34;;;;;;;9.75;6.38;;;16.70;99.90;;;;;;10453488;28;20064;-83
2022/07/31 18:31:34;;;;;;;7.65;5.63;;;16.80;99.90;;;;;;10461684;28;20204;-82
2022/07/31 18:36:35;;;;;;;11.55;5.70;;;16.70;99.90;;;;;;10456161;28;20479;-82
2022/07/31 18:41:37;;;;;;;12.10;6.25;;;16.70;99.90;;;;;;10466429;28;20435;-82
2022/07/31 18:46:37;;;;;;;7.53;6.38;;;16.70;99.90;;;;;;10473147;28;20746;-83
2022/07/31 18:51:38;;;;;;;12.45;6.93;;;16.60;99.90;;;;;;10463985;28;20111;-82
2022/07/31 18:56:39;;;;;;;8.55;5.00;;;16.50;99.90;;;;;;10460717;28;20044;-82
2022/07/31 19:01:40;;;;;;;7.82;5.65;;;16.50;99.90;;;;;;10462251;28;20047;-83
2022/07/31 19:06:42;;;;;;;8.70;5.88;;;16.50;99.90;;;;;;10465212;28;20468;-82
2022/07/31 19:11:43;;;;;;;9.65;5.80;;;16.50;99.90;;;;;;10460153;28;20146;-82
2022/07/31 19:16:44;;;;;;;8.25;5.57;;;16.40;99.90;;;;;;10468651;28;20190;-83
2022/07/31 19:21:44;;;;;;;8.15;5.10;;;16.40;99.90;;;;;;10472155;28;20039;-82
2022/07/31 19:26:52;;;;;;;6.57;5.68;;;16.40;99.90;;;;;;10451015;28;20472;-83
2022/07/31 19:31:53;;;;;;;8.73;5.28;;;16.40;99.90;;;;;;10449032;28;20039;-82
2022/07/31 19:36:53;;;;;;;5.82;5.20;;;16.30;99.90;;;;;;10454654;28;20037;-82
2022/07/31 19:41:54;;;;;;;10.38;5.55;;;16.30;99.90;;;;;;10460816;28;20403;-83
2022/07/31 19:47:10;;;;;;;;;;;;;;;;;;;;;
2022/07/31 19:52:11;;;;;;;8.65;6.43;;;16.30;99.90;;;;;;10414577;28;20033;-81
2022/07/31 19:57:12;;;;;;;9.65;5.93;;;16.20;99.90;;;;;;10411015;28;20045;-82
2022/07/31 20:02:16;;;;;;;10.45;7.20;;;16.10;99.90;;;;;;10394853;28;20033;-83
2022/07/31 20:07:16;;;;;;;8.07;6.50;;;16.10;99.90;;;;;;10427038;28;20132;-82
2022/07/31 20:12:17;;;;;;;9.27;6.95;;;16.10;99.90;;;;;;10443890;28;20161;-82
2022/07/31 20:17:18;;;;;;;10.32;7.15;;;16.10;99.90;;;;;;10461265;28;20071;-81
2022/07/31 20:22:18;;;;;;;10.93;7.32;;;16.10;99.90;;;;;;10444399;28;20025;-82
2022/07/31 20:27:19;;;;;;;9.52;6.95;;;16.00;99.90;;;;;;10439783;28;20472;-82
2022/07/31 20:32:20;;;;;;;10.68;7.15;;;16.00;99.90;;;;;;10466049;28;20035;-81
2022/07/31 20:37:20;;;;;;;12.65;7.57;;;16.00;99.90;;;;;;10458991;28;20033;-82
2022/07/31 20:42:21;;;;;;;9.52;7.25;;;16.00;99.90;;;;;;10444160;28;20035;-81
2022/07/31 20:47:21;;;;;;;11.32;7.85;;;16.00;99.90;;;;;;10455012;28;20140;-81
2022/07/31 20:52:22;;;;;;;9.95;7.80;;;16.00;99.90;;;;;;10458576;28;20038;-81
2022/07/31 20:57:22;;;;;;;9.13;7.32;;;16.00;99.90;;;;;;10460664;28;20596;-81
2022/07/31 21:02:23;;;;;;;12.77;7.63;;;15.90;99.90;;;;;;10458102;28;20074;-82
2022/07/31 21:07:24;;;;;;;9.70;7.68;;;15.90;99.90;;;;;;10459547;28;20033;-81
2022/07/31 21:12:25;;;;;;;8.38;7.30;;;15.90;99.90;;;;;;10460339;28;20031;-82
2022/07/31 21:17:26;;;;;;;11.13;7.72;;;15.90;99.90;;;;;;10466371;28;20063;-82
2022/07/31 21:22:26;;;;;;;11.23;7.47;;;15.90;99.90;;;;;;10452586;28;20121;-81
2022/07/31 21:27:29;;;;;;;11.27;9.77;;;15.90;99.90;;;;;;10450318;28;20477;-81
2022/07/31 21:32:30;;;;;;;11.48;8.60;;;15.90;99.90;;;;;;10447436;28;20113;-82
2022/07/31 21:37:30;;;;;;;8.93;7.47;;;15.90;99.90;;;;;;10446711;28;20040;-82
2022/07/31 21:42:31;;;;;;;10.10;8.57;;;15.90;99.90;;;;;;10444862;28;20516;-82
2022/07/31 21:47:40;;;;;;;12.57;8.18;;;15.90;99.90;;;;;;10447073;28;20061;-81
2022/07/31 21:52:41;;;;;;;10.88;9.43;;;15.90;99.90;;;;;;10453920;28;20029;-81
2022/07/31 21:57:41;;;;;;;11.05;8.15;;;15.90;99.90;;;;;;10451373;28;20110;-82
2022/07/31 22:02:44;;;;;;;13.52;9.23;;;15.80;99.90;;;;;;10453239;28;20114;-81
2022/07/31 22:07:46;;;;;;;10.25;8.70;;;15.90;99.90;;;;;;10452009;28;20017;-81
2022/07/31 22:12:47;;;;;;;9.98;7.82;;;15.80;99.90;;;;;;10463346;28;20443;-82
2022/07/31 22:17:48;;;;;;;8.50;7.32;;;15.80;99.90;;;;;;10462458;28;20571;-82
2022/07/31 22:22:50;;;;;;;11.85;9.57;;;15.80;99.90;;;;;;10473661;28;20571;-81
2022/07/31 22:27:51;;;;;;;13.48;9.18;;;15.70;99.90;;;;;;10465029;28;20743;-82
2022/07/31 22:32:53;;;;;;;12.75;9.80;;;15.60;99.90;;;;;;10460082;28;20025;-82
2022/07/31 22:37:54;;;;;;;13.43;10.45;;;15.50;99.90;;;;;;10463603;28;20040;-81
2022/07/31 22:42:54;;;;;;;17.48;10.73;;;15.20;99.90;;;;;;10453662;28;20384;-82
2022/07/31 22:47:56;;;;;;;20.73;11.95;;;15.00;99.90;;;;;;10465946;28;20064;-81
2022/07/31 22:52:56;;;;;;;16.85;12.07;;;14.80;99.90;;;;;;10451847;28;20033;-81
2022/07/31 22:57:57;;;;;;;17.25;12.10;;;14.70;99.90;;;;;;10452243;28;20048;-81
2022/07/31 23:02:57;;;;;;;18.20;13.40;;;14.50;99.90;;;;;;10465892;28;20032;-81
2022/07/31 23:07:58;;;;;;;18.63;12.65;;;14.50;99.90;;;;;;10451389;28;20510;-82
2022/07/31 23:12:59;;;;;;;18.30;12.52;;;14.40;99.90;;;;;;10459737;28;20042;-81
2022/07/31 23:18:00;;;;;;;25.25;12.30;;;14.30;99.90;;;;;;10453334;28;20040;-81
2022/07/31 23:23:01;;;;;;;27.60;16.83;;;14.20;99.90;;;;;;10437983;28;20038;-82
2022/07/31 23:28:01;;;;;;;21.52;14.32;;;14.20;99.90;;;;;;10453187;23;20408;-82
2022/07/31 23:33:02;;;;;;;25.13;15.95;;;14.10;99.90;;;;;;10424074;28;20599;-82
2022/07/31 23:38:03;;;;;;;33.08;17.02;;;14.10;99.90;;;;;;10410162;28;20061;-82
2022/07/31 23:43:03;;;;;;;38.40;20.17;;;14.00;99.90;;;;;;10419740;28;20029;-83
2022/07/31 23:48:04;;;;;;;24.45;15.52;;;13.90;99.90;;;;;;10429099;28;20033;-81
2022/07/31 23:53:05;;;;;;;22.85;15.05;;;13.80;99.90;;;;;;10409734;28;20692;-82
2022/07/31 23:58:05;;;;;;;24.35;15.23;;;13.80;99.90;;;;;;10425317;28;20127;-82
